sensor_id;sensor_type;location;lat;lon;timestamp;P1;durP1;ratioP1;P2;durP2;ratioP2
20065;SDS011;10193;48.884;9.182;2023-03-16T00:00:11;8.07;;;7.27;;
20065;SDS011;10193;48.884;9.182;2023-03-16T00:02:39;7.93;;;7.13;;
20065;SDS011;10193;48.884;9.182;2023-03-16T00:05:06;8.10;;;7.40;;
20065;SDS011;10193;48.884;9.182;2023-03-16T00:07:33;8.00;;;7.20;;
20065;SDS011;10193;48.884;9.182;2023-03-16T00:10:00;8.73;;;7.90;;
20065;SDS011;10193;48.884;9.182;2023-03-16T00:12:27;7.97;;;7.17;;
20065;SDS011;10193;48.884;9.182;2023-03-16T00:15:00;8.47;;;7.57;;
20065;SDS011;10193;48.884;9.182;2023-03-16T00:17:28;8.20;;;7.40;;
20065;SDS011;10193;48.884;9.182;2023-03-16T00:19:55;8.20;;;7.40;;
20065;SDS011;10193;48.884;9.182;2023-03-16T00:22:23;8.67;;;7.43;;
20065;SDS011;10193;48.884;9.182;2023-03-16T00:24:50;8.63;;;7.73;;
20065;SDS011;10193;48.884;9.182;2023-03-16T00:27:18;8.40;;;7.50;;
20065;SDS011;10193;48.884;9.182;2023-03-16T00:29:46;8.23;;;7.43;;
20065;SDS011;10193;48.884;9.182;2023-03-16T00:32:16;8.47;;;7.67;;
20065;SDS011;10193;48.884;9.182;2023-03-16T00:34:44;8.60;;;7.80;;
20065;SDS011;10193;48.884;9.182;2023-03-16T00:37:12;9.90;;;7.87;;
20065;SDS011;10193;48.884;9.182;2023-03-16T00:39:41;8.30;;;7.37;;
20065;SDS011;10193;48.884;9.182;2023-03-16T00:42:08;8.10;;;7.40;;
20065;SDS011;10193;48.884;9.182;2023-03-16T00:44:36;8.20;;;7.40;;
20065;SDS011;10193;48.884;9.182;2023-03-16T00:47:03;8.30;;;7.50;;
20065;SDS011;10193;48.884;9.182;2023-03-16T00:49:32;8.87;;;7.97;;
20065;SDS011;10193;48.884;9.182;2023-03-16T00:52:00;8.97;;;8.07;;
20065;SDS011;10193;48.884;9.182;2023-03-16T00:54:27;8.67;;;7.77;;
20065;SDS011;10193;48.884;9.182;2023-03-16T00:56:54;8.50;;;7.70;;
20065;SDS011;10193;48.884;9.182;2023-03-16T00:59:20;8.77;;;7.87;;
20065;SDS011;10193;48.884;9.182;2023-03-16T01:01:47;9.03;;;8.13;;
20065;SDS011;10193;48.884;9.182;2023-03-16T01:04:14;9.20;;;8.30;;
20065;SDS011;10193;48.884;9.182;2023-03-16T01:06:42;9.30;;;8.37;;
20065;SDS011;10193;48.884;9.182;2023-03-16T01:09:09;8.80;;;7.97;;
20065;SDS011;10193;48.884;9.182;2023-03-16T01:11:36;9.10;;;8.20;;
20065;SDS011;10193;48.884;9.182;2023-03-16T01:14:04;7.73;;;7.03;;
20065;SDS011;10193;48.884;9.182;2023-03-16T01:16:30;8.47;;;7.67;;
20065;SDS011;10193;48.884;9.182;2023-03-16T01:18:58;8.10;;;7.30;;
20065;SDS011;10193;48.884;9.182;2023-03-16T01:21:25;8.63;;;7.53;;
20065;SDS011;10193;48.884;9.182;2023-03-16T01:23:54;9.03;;;8.13;;
20065;SDS011;10193;48.884;9.182;2023-03-16T01:26:20;8.60;;;7.70;;
20065;SDS011;10193;48.884;9.182;2023-03-16T01:28:49;9.37;;;8.47;;
20065;SDS011;10193;48.884;9.182;2023-03-16T01:31:15;8.80;;;8.00;;
20065;SDS011;10193;48.884;9.182;2023-03-16T01:33:42;9.17;;;8.27;;
20065;SDS011;10193;48.884;9.182;2023-03-16T01:36:10;8.87;;;7.97;;
20065;SDS011;10193;48.884;9.182;2023-03-16T01:38:38;8.50;;;7.67;;
20065;SDS011;10193;48.884;9.182;2023-03-16T01:41:06;9.20;;;8.20;;
20065;SDS011;10193;48.884;9.182;2023-03-16T01:43:33;9.27;;;8.33;;
20065;SDS011;10193;48.884;9.182;2023-03-16T01:48:55;9.17;;;7.73;;
20065;SDS011;10193;48.884;9.182;2023-03-16T01:51:27;8.70;;;7.83;;
20065;SDS011;10193;48.884;9.182;2023-03-16T01:53:57;8.43;;;7.63;;
20065;SDS011;10193;48.884;9.182;2023-03-16T01:56:31;9.47;;;8.23;;
20065;SDS011;10193;48.884;9.182;2023-03-16T01:59:04;8.97;;;8.07;;
20065;SDS011;10193;48.884;9.182;2023-03-16T02:01:35;9.17;;;8.27;;
20065;SDS011;10193;48.884;9.182;2023-03-16T02:04:04;9.13;;;8.23;;
20065;SDS011;10193;48.884;9.182;2023-03-16T02:06:38;8.93;;;8.03;;
20065;SDS011;10193;48.884;9.182;2023-03-16T02:09:05;8.97;;;7.97;;
20065;SDS011;10193;48.884;9.182;2023-03-16T02:11:33;8.53;;;7.73;;
20065;SDS011;10193;48.884;9.182;2023-03-16T02:14:02;8.53;;;7.67;;
20065;SDS011;10193;48.884;9.182;2023-03-16T02:16:33;9.00;;;8.10;;
20065;SDS011;10193;48.884;9.182;2023-03-16T02:19:00;10.10;;;8.10;;
20065;SDS011;10193;48.884;9.182;2023-03-16T02:21:28;9.20;;;7.60;;
20065;SDS011;10193;48.884;9.182;2023-03-16T02:23:58;10.17;;;7.43;;
20065;SDS011;10193;48.884;9.182;2023-03-16T02:26:28;11.67;;;8.57;;
20065;SDS011;10193;48.884;9.182;2023-03-16T02:29:10;9.53;;;7.77;;
20065;SDS011;10193;48.884;9.182;2023-03-16T02:31:55;19.60;;;7.50;;
20065;SDS011;10193;48.884;9.182;2023-03-16T02:34:23;17.90;;;7.43;;
20065;SDS011;10193;48.884;9.182;2023-03-16T02:36:51;19.33;;;7.53;;
20065;SDS011;10193;48.884;9.182;2023-03-16T02:39:19;16.17;;;7.87;;
20065;SDS011;10193;48.884;9.182;2023-03-16T02:41:46;8.60;;;7.70;;
20065;SDS011;10193;48.884;9.182;2023-03-16T02:44:13;8.53;;;7.57;;
20065;SDS011;10193;48.884;9.182;2023-03-16T02:46:42;9.33;;;7.27;;
20065;SDS011;10193;48.884;9.182;2023-03-16T02:49:13;9.30;;;8.40;;
20065;SDS011;10193;48.884;9.182;2023-03-16T02:51:44;8.33;;;7.53;;
20065;SDS011;10193;48.884;9.182;2023-03-16T02:54:11;9.90;;;8.90;;
20065;SDS011;10193;48.884;9.182;2023-03-16T02:56:38;8.87;;;7.97;;
20065;SDS011;10193;48.884;9.182;2023-03-16T02:59:05;9.43;;;7.63;;
20065;SDS011;10193;48.884;9.182;2023-03-16T03:01:33;7.97;;;7.17;;
20065;SDS011;10193;48.884;9.182;2023-03-16T03:04:00;8.20;;;7.40;;
20065;SDS011;10193;48.884;9.182;2023-03-16T03:06:28;7.67;;;6.97;;
20065;SDS011;10193;48.884;9.182;2023-03-16T03:08:56;8.23;;;7.43;;
20065;SDS011;10193;48.884;9.182;2023-03-16T03:11:23;8.00;;;7.27;;
20065;SDS011;10193;48.884;9.182;2023-03-16T03:13:49;8.50;;;7.60;;
20065;SDS011;10193;48.884;9.182;2023-03-16T03:16:16;8.17;;;7.37;;
20065;SDS011;10193;48.884;9.182;2023-03-16T03:18:43;8.13;;;7.33;;
20065;SDS011;10193;48.884;9.182;2023-03-16T03:21:09;8.67;;;7.83;;
20065;SDS011;10193;48.884;9.182;2023-03-16T03:23:37;8.37;;;7.57;;
20065;SDS011;10193;48.884;9.182;2023-03-16T03:26:04;9.10;;;8.20;;
20065;SDS011;10193;48.884;9.182;2023-03-16T03:28:31;9.87;;;8.00;;
20065;SDS011;10193;48.884;9.182;2023-03-16T03:30:58;8.10;;;7.30;;
20065;SDS011;10193;48.884;9.182;2023-03-16T03:33:26;8.50;;;7.70;;
20065;SDS011;10193;48.884;9.182;2023-03-16T03:35:53;8.80;;;7.90;;
20065;SDS011;10193;48.884;9.182;2023-03-16T03:38:21;9.03;;;8.13;;
20065;SDS011;10193;48.884;9.182;2023-03-16T03:40:49;8.77;;;7.90;;
20065;SDS011;10193;48.884;9.182;2023-03-16T03:43:16;8.93;;;8.03;;
20065;SDS011;10193;48.884;9.182;2023-03-16T03:45:43;9.03;;;8.13;;
20065;SDS011;10193;48.884;9.182;2023-03-16T03:48:09;9.40;;;8.27;;
20065;SDS011;10193;48.884;9.182;2023-03-16T03:50:36;8.90;;;8.00;;
20065;SDS011;10193;48.884;9.182;2023-03-16T03:53:04;8.00;;;7.30;;
20065;SDS011;10193;48.884;9.182;2023-03-16T03:55:31;8.73;;;7.87;;
20065;SDS011;10193;48.884;9.182;2023-03-16T03:57:59;9.00;;;8.10;;
20065;SDS011;10193;48.884;9.182;2023-03-16T04:00:26;8.47;;;7.67;;
20065;SDS011;10193;48.884;9.182;2023-03-16T04:02:53;8.60;;;7.70;;
20065;SDS011;10193;48.884;9.182;2023-03-16T04:05:19;9.10;;;8.20;;
20065;SDS011;10193;48.884;9.182;2023-03-16T04:07:46;9.53;;;8.53;;
20065;SDS011;10193;48.884;9.182;2023-03-16T04:10:14;8.73;;;7.83;;
20065;SDS011;10193;48.884;9.182;2023-03-16T04:12:41;8.37;;;7.57;;
20065;SDS011;10193;48.884;9.182;2023-03-16T04:15:10;9.30;;;7.97;;
20065;SDS011;10193;48.884;9.182;2023-03-16T04:17:37;8.50;;;7.67;;
20065;SDS011;10193;48.884;9.182;2023-03-16T04:20:04;9.27;;;7.73;;
20065;SDS011;10193;48.884;9.182;2023-03-16T04:22:36;8.67;;;7.77;;
20065;SDS011;10193;48.884;9.182;2023-03-16T04:25:03;8.43;;;7.60;;
20065;SDS011;10193;48.884;9.182;2023-03-16T04:27:30;8.93;;;7.80;;
20065;SDS011;10193;48.884;9.182;2023-03-16T04:30:00;8.50;;;7.57;;
20065;SDS011;10193;48.884;9.182;2023-03-16T04:32:28;8.30;;;7.50;;
20065;SDS011;10193;48.884;9.182;2023-03-16T04:34:55;8.83;;;7.93;;
20065;SDS011;10193;48.884;9.182;2023-03-16T04:37:22;8.23;;;7.43;;
20065;SDS011;10193;48.884;9.182;2023-03-16T04:39:50;8.33;;;7.53;;
20065;SDS011;10193;48.884;9.182;2023-03-16T04:42:17;8.47;;;7.57;;
20065;SDS011;10193;48.884;9.182;2023-03-16T04:44:43;8.60;;;7.73;;
20065;SDS011;10193;48.884;9.182;2023-03-16T04:47:10;8.37;;;7.50;;
20065;SDS011;10193;48.884;9.182;2023-03-16T04:49:39;9.37;;;7.70;;
20065;SDS011;10193;48.884;9.182;2023-03-16T04:52:05;8.33;;;7.53;;
20065;SDS011;10193;48.884;9.182;2023-03-16T04:54:32;8.23;;;7.43;;
20065;SDS011;10193;48.884;9.182;2023-03-16T04:56:59;8.50;;;7.60;;
20065;SDS011;10193;48.884;9.182;2023-03-16T04:59:27;8.97;;;7.40;;
20065;SDS011;10193;48.884;9.182;2023-03-16T05:01:54;8.20;;;7.40;;
20065;SDS011;10193;48.884;9.182;2023-03-16T05:04:21;9.87;;;7.93;;
20065;SDS011;10193;48.884;9.182;2023-03-16T05:06:49;8.40;;;7.60;;
20065;SDS011;10193;48.884;9.182;2023-03-16T05:09:16;8.37;;;7.57;;
20065;SDS011;10193;48.884;9.182;2023-03-16T05:11:44;8.60;;;7.80;;
20065;SDS011;10193;48.884;9.182;2023-03-16T05:14:11;8.57;;;7.67;;
20065;SDS011;10193;48.884;9.182;2023-03-16T05:16:38;8.50;;;7.60;;
20065;SDS011;10193;48.884;9.182;2023-03-16T05:19:05;8.60;;;7.57;;
20065;SDS011;10193;48.884;9.182;2023-03-16T05:21:32;8.30;;;7.37;;
20065;SDS011;10193;48.884;9.182;2023-03-16T05:24:03;8.80;;;7.70;;
20065;SDS011;10193;48.884;9.182;2023-03-16T05:26:29;9.30;;;8.30;;
20065;SDS011;10193;48.884;9.182;2023-03-16T05:28:56;9.13;;;8.23;;
20065;SDS011;10193;48.884;9.182;2023-03-16T05:31:23;9.83;;;8.40;;
20065;SDS011;10193;48.884;9.182;2023-03-16T05:33:51;9.33;;;8.43;;
20065;SDS011;10193;48.884;9.182;2023-03-16T05:36:18;8.90;;;8.00;;
20065;SDS011;10193;48.884;9.182;2023-03-16T05:38:45;8.90;;;8.00;;
20065;SDS011;10193;48.884;9.182;2023-03-16T05:41:13;9.13;;;8.23;;
20065;SDS011;10193;48.884;9.182;2023-03-16T05:43:39;9.40;;;8.43;;
20065;SDS011;10193;48.884;9.182;2023-03-16T05:46:06;8.83;;;7.93;;
20065;SDS011;10193;48.884;9.182;2023-03-16T05:48:32;9.17;;;8.27;;
20065;SDS011;10193;48.884;9.182;2023-03-16T05:51:00;9.40;;;8.30;;
20065;SDS011;10193;48.884;9.182;2023-03-16T05:53:29;9.23;;;8.33;;
20065;SDS011;10193;48.884;9.182;2023-03-16T05:55:56;9.83;;;8.83;;
20065;SDS011;10193;48.884;9.182;2023-03-16T05:58:24;10.30;;;8.70;;
20065;SDS011;10193;48.884;9.182;2023-03-16T06:00:51;10.13;;;8.97;;
20065;SDS011;10193;48.884;9.182;2023-03-16T06:03:19;9.57;;;8.53;;
20065;SDS011;10193;48.884;9.182;2023-03-16T06:05:46;9.63;;;8.63;;
20065;SDS011;10193;48.884;9.182;2023-03-16T06:08:13;9.40;;;8.50;;
20065;SDS011;10193;48.884;9.182;2023-03-16T06:10:40;10.37;;;9.27;;
20065;SDS011;10193;48.884;9.182;2023-03-16T06:13:07;10.47;;;9.37;;
20065;SDS011;10193;48.884;9.182;2023-03-16T06:15:34;10.03;;;8.93;;
20065;SDS011;10193;48.884;9.182;2023-03-16T06:18:01;10.40;;;9.30;;
20065;SDS011;10193;48.884;9.182;2023-03-16T06:20:28;11.27;;;9.83;;
20065;SDS011;10193;48.884;9.182;2023-03-16T06:22:55;10.60;;;9.50;;
20065;SDS011;10193;48.884;9.182;2023-03-16T06:25:22;10.20;;;9.10;;
20065;SDS011;10193;48.884;9.182;2023-03-16T06:27:49;11.47;;;10.27;;
20065;SDS011;10193;48.884;9.182;2023-03-16T06:32:44;11.97;;;10.43;;
20065;SDS011;10193;48.884;9.182;2023-03-16T06:35:11;11.03;;;9.83;;
20065;SDS011;10193;48.884;9.182;2023-03-16T06:37:38;11.00;;;9.90;;
20065;SDS011;10193;48.884;9.182;2023-03-16T06:40:06;11.47;;;9.93;;
20065;SDS011;10193;48.884;9.182;2023-03-16T06:42:34;10.77;;;9.67;;
20065;SDS011;10193;48.884;9.182;2023-03-16T06:45:01;10.97;;;9.87;;
20065;SDS011;10193;48.884;9.182;2023-03-16T06:47:28;10.40;;;9.30;;
20065;SDS011;10193;48.884;9.182;2023-03-16T06:49:57;10.50;;;9.43;;
20065;SDS011;10193;48.884;9.182;2023-03-16T06:52:23;10.53;;;9.53;;
20065;SDS011;10193;48.884;9.182;2023-03-16T06:54:50;9.73;;;8.73;;
20065;SDS011;10193;48.884;9.182;2023-03-16T06:57:17;10.50;;;9.40;;
20065;SDS011;10193;48.884;9.182;2023-03-16T06:59:43;10.50;;;9.40;;
20065;SDS011;10193;48.884;9.182;2023-03-16T07:02:11;10.13;;;9.13;;
20065;SDS011;10193;48.884;9.182;2023-03-16T07:04:39;10.77;;;9.67;;
20065;SDS011;10193;48.884;9.182;2023-03-16T07:07:07;10.20;;;9.10;;
20065;SDS011;10193;48.884;9.182;2023-03-16T07:09:35;10.43;;;9.40;;
20065;SDS011;10193;48.884;9.182;2023-03-16T07:12:02;10.70;;;9.13;;
20065;SDS011;10193;48.884;9.182;2023-03-16T07:14:29;10.57;;;9.47;;
20065;SDS011;10193;48.884;9.182;2023-03-16T07:16:56;10.40;;;9.30;;
20065;SDS011;10193;48.884;9.182;2023-03-16T07:19:23;10.60;;;9.60;;
20065;SDS011;10193;48.884;9.182;2023-03-16T07:21:50;10.80;;;9.70;;
20065;SDS011;10193;48.884;9.182;2023-03-16T07:24:18;10.70;;;9.60;;
20065;SDS011;10193;48.884;9.182;2023-03-16T07:26:45;10.80;;;9.70;;
20065;SDS011;10193;48.884;9.182;2023-03-16T07:29:11;11.33;;;9.53;;
20065;SDS011;10193;48.884;9.182;2023-03-16T07:31:39;11.03;;;9.93;;
20065;SDS011;10193;48.884;9.182;2023-03-16T07:34:06;11.50;;;9.73;;
20065;SDS011;10193;48.884;9.182;2023-03-16T07:36:33;10.60;;;9.13;;
20065;SDS011;10193;48.884;9.182;2023-03-16T07:39:00;10.50;;;9.40;;
20065;SDS011;10193;48.884;9.182;2023-03-16T07:41:28;11.30;;;10.10;;
20065;SDS011;10193;48.884;9.182;2023-03-16T07:43:54;10.27;;;9.27;;
20065;SDS011;10193;48.884;9.182;2023-03-16T07:46:22;10.60;;;9.50;;
20065;SDS011;10193;48.884;9.182;2023-03-16T07:48:49;10.30;;;9.20;;
20065;SDS011;10193;48.884;9.182;2023-03-16T07:51:15;11.00;;;9.20;;
20065;SDS011;10193;48.884;9.182;2023-03-16T07:53:42;10.40;;;9.33;;
20065;SDS011;10193;48.884;9.182;2023-03-16T07:56:09;9.40;;;8.50;;
20065;SDS011;10193;48.884;9.182;2023-03-16T07:58:37;9.90;;;8.97;;
20065;SDS011;10193;48.884;9.182;2023-03-16T08:01:05;9.93;;;8.93;;
20065;SDS011;10193;48.884;9.182;2023-03-16T08:03:33;9.57;;;8.57;;
20065;SDS011;10193;48.884;9.182;2023-03-16T08:06:00;9.80;;;8.80;;
20065;SDS011;10193;48.884;9.182;2023-03-16T08:08:26;9.67;;;8.67;;
20065;SDS011;10193;48.884;9.182;2023-03-16T08:10:53;10.60;;;9.50;;
20065;SDS011;10193;48.884;9.182;2023-03-16T08:13:20;10.57;;;9.57;;
20065;SDS011;10193;48.884;9.182;2023-03-16T08:15:49;10.27;;;9.27;;
20065;SDS011;10193;48.884;9.182;2023-03-16T08:18:22;10.33;;;9.33;;
20065;SDS011;10193;48.884;9.182;2023-03-16T08:20:50;10.40;;;9.40;;
20065;SDS011;10193;48.884;9.182;2023-03-16T08:23:17;10.23;;;9.23;;
20065;SDS011;10193;48.884;9.182;2023-03-16T08:25:44;9.77;;;8.23;;
20065;SDS011;10193;48.884;9.182;2023-03-16T08:28:11;9.77;;;8.73;;
20065;SDS011;10193;48.884;9.182;2023-03-16T08:30:42;9.87;;;8.87;;
20065;SDS011;10193;48.884;9.182;2023-03-16T08:33:12;11.07;;;8.90;;
20065;SDS011;10193;48.884;9.182;2023-03-16T08:35:40;10.43;;;9.43;;
20065;SDS011;10193;48.884;9.182;2023-03-16T08:38:08;10.13;;;9.13;;
20065;SDS011;10193;48.884;9.182;2023-03-16T08:40:35;9.97;;;8.90;;
20065;SDS011;10193;48.884;9.182;2023-03-16T08:43:02;10.07;;;8.73;;
20065;SDS011;10193;48.884;9.182;2023-03-16T08:45:29;10.10;;;9.10;;
20065;SDS011;10193;48.884;9.182;2023-03-16T08:47:55;10.27;;;9.27;;
20065;SDS011;10193;48.884;9.182;2023-03-16T08:50:24;10.32;;;9.32;;
20065;SDS011;10193;48.884;9.182;2023-03-16T08:52:51;9.93;;;9.02;;
20065;SDS011;10193;48.884;9.182;2023-03-16T08:55:18;9.47;;;8.57;;
20065;SDS011;10193;48.884;9.182;2023-03-16T08:57:44;9.68;;;8.70;;
20065;SDS011;10193;48.884;9.182;2023-03-16T09:00:13;10.77;;;9.52;;
20065;SDS011;10193;48.884;9.182;2023-03-16T09:02:41;9.53;;;8.53;;
20065;SDS011;10193;48.884;9.182;2023-03-16T09:05:10;9.23;;;8.33;;
20065;SDS011;10193;48.884;9.182;2023-03-16T09:07:40;9.03;;;8.13;;
20065;SDS011;10193;48.884;9.182;2023-03-16T09:10:08;9.18;;;8.27;;
20065;SDS011;10193;48.884;9.182;2023-03-16T09:12:37;9.65;;;8.65;;
20065;SDS011;10193;48.884;9.182;2023-03-16T09:15:05;9.63;;;8.70;;
20065;SDS011;10193;48.884;9.182;2023-03-16T09:17:34;9.95;;;8.73;;
20065;SDS011;10193;48.884;9.182;2023-03-16T09:20:01;10.40;;;9.40;;
20065;SDS011;10193;48.884;9.182;2023-03-16T09:22:30;10.07;;;8.50;;
20065;SDS011;10193;48.884;9.182;2023-03-16T09:24:58;9.40;;;8.30;;
20065;SDS011;10193;48.884;9.182;2023-03-16T09:27:24;9.50;;;8.70;;
20065;SDS011;10193;48.884;9.182;2023-03-16T09:29:51;9.82;;;8.82;;
20065;SDS011;10193;48.884;9.182;2023-03-16T09:32:20;10.13;;;9.07;;
20065;SDS011;10193;48.884;9.182;2023-03-16T09:34:47;9.35;;;8.45;;
20065;SDS011;10193;48.884;9.182;2023-03-16T09:37:14;9.75;;;7.82;;
20065;SDS011;10193;48.884;9.182;2023-03-16T09:39:41;9.30;;;8.20;;
20065;SDS011;10193;48.884;9.182;2023-03-16T09:42:11;7.93;;;7.22;;
20065;SDS011;10193;48.884;9.182;2023-03-16T09:44:45;8.02;;;7.22;;
20065;SDS011;10193;48.884;9.182;2023-03-16T09:47:24;8.45;;;7.55;;
20065;SDS011;10193;48.884;9.182;2023-03-16T09:49:54;8.15;;;7.40;;
20065;SDS011;10193;48.884;9.182;2023-03-16T09:52:27;8.10;;;7.30;;
20065;SDS011;10193;48.884;9.182;2023-03-16T09:55:01;7.93;;;7.10;;
20065;SDS011;10193;48.884;9.182;2023-03-16T09:57:33;9.20;;;7.05;;
20065;SDS011;10193;48.884;9.182;2023-03-16T10:00:09;7.35;;;6.63;;
20065;SDS011;10193;48.884;9.182;2023-03-16T10:02:47;7.25;;;6.65;;
20065;SDS011;10193;48.884;9.182;2023-03-16T10:05:27;7.32;;;6.63;;
20065;SDS011;10193;48.884;9.182;2023-03-16T10:07:57;7.15;;;6.45;;
20065;SDS011;10193;48.884;9.182;2023-03-16T10:10:44;6.85;;;6.25;;
20065;SDS011;10193;48.884;9.182;2023-03-16T10:13:24;6.50;;;5.90;;
20065;SDS011;10193;48.884;9.182;2023-03-16T10:15:55;7.28;;;6.53;;
20065;SDS011;10193;48.884;9.182;2023-03-16T10:18:25;7.30;;;6.40;;
20065;SDS011;10193;48.884;9.182;2023-03-16T10:20:56;8.75;;;6.03;;
20065;SDS011;10193;48.884;9.182;2023-03-16T10:23:24;6.53;;;5.93;;
20065;SDS011;10193;48.884;9.182;2023-03-16T10:25:51;6.22;;;5.53;;
20065;SDS011;10193;48.884;9.182;2023-03-16T10:28:21;6.43;;;5.80;;
20065;SDS011;10193;48.884;9.182;2023-03-16T10:30:51;5.60;;;5.10;;
20065;SDS011;10193;48.884;9.182;2023-03-16T10:33:21;5.78;;;5.28;;
20065;SDS011;10193;48.884;9.182;2023-03-16T10:35:52;5.95;;;5.35;;
20065;SDS011;10193;48.884;9.182;2023-03-16T10:38:26;5.40;;;4.90;;
20065;SDS011;10193;48.884;9.182;2023-03-16T10:40:57;5.70;;;5.10;;
20065;SDS011;10193;48.884;9.182;2023-03-16T10:43:25;6.53;;;5.60;;
20065;SDS011;10193;48.884;9.182;2023-03-16T10:45:57;5.88;;;5.38;;
20065;SDS011;10193;48.884;9.182;2023-03-16T10:48:26;5.32;;;4.82;;
20065;SDS011;10193;48.884;9.182;2023-03-16T10:50:53;5.22;;;4.72;;
20065;SDS011;10193;48.884;9.182;2023-03-16T10:53:22;6.95;;;4.60;;
20065;SDS011;10193;48.884;9.182;2023-03-16T10:55:56;5.07;;;4.68;;
20065;SDS011;10193;48.884;9.182;2023-03-16T10:58:24;5.25;;;4.80;;
20065;SDS011;10193;48.884;9.182;2023-03-16T11:00:55;5.20;;;4.63;;
20065;SDS011;10193;48.884;9.182;2023-03-16T11:03:24;5.35;;;4.70;;
20065;SDS011;10193;48.884;9.182;2023-03-16T11:05:56;4.50;;;4.20;;
20065;SDS011;10193;48.884;9.182;2023-03-16T11:08:24;4.85;;;4.35;;
20065;SDS011;10193;48.884;9.182;2023-03-16T11:10:56;5.20;;;4.70;;
20065;SDS011;10193;48.884;9.182;2023-03-16T11:13:30;4.97;;;4.35;;
20065;SDS011;10193;48.884;9.182;2023-03-16T11:15:59;4.30;;;3.90;;
20065;SDS011;10193;48.884;9.182;2023-03-16T11:18:31;4.40;;;4.00;;
20065;SDS011;10193;48.884;9.182;2023-03-16T11:21:04;4.03;;;3.70;;
20065;SDS011;10193;48.884;9.182;2023-03-16T11:23:38;4.10;;;3.70;;
20065;SDS011;10193;48.884;9.182;2023-03-16T11:26:14;4.05;;;3.75;;
20065;SDS011;10193;48.884;9.182;2023-03-16T11:28:49;4.10;;;3.80;;
20065;SDS011;10193;48.884;9.182;2023-03-16T11:31:25;3.63;;;3.33;;
20065;SDS011;10193;48.884;9.182;2023-03-16T11:34:07;4.05;;;3.75;;
20065;SDS011;10193;48.884;9.182;2023-03-16T11:36:42;3.90;;;3.60;;
20065;SDS011;10193;48.884;9.182;2023-03-16T11:39:14;4.47;;;3.63;;
20065;SDS011;10193;48.884;9.182;2023-03-16T11:41:56;3.75;;;3.42;;
20065;SDS011;10193;48.884;9.182;2023-03-16T11:44:31;4.63;;;3.80;;
20065;SDS011;10193;48.884;9.182;2023-03-16T11:47:05;4.82;;;3.53;;
20065;SDS011;10193;48.884;9.182;2023-03-16T11:49:47;4.13;;;3.83;;
20065;SDS011;10193;48.884;9.182;2023-03-16T11:52:23;3.42;;;3.13;;
20065;SDS011;10193;48.884;9.182;2023-03-16T11:55:03;3.45;;;3.25;;
20065;SDS011;10193;48.884;9.182;2023-03-16T11:57:44;3.67;;;3.10;;
20065;SDS011;10193;48.884;9.182;2023-03-16T12:00:21;3.53;;;3.22;;
20065;SDS011;10193;48.884;9.182;2023-03-16T12:03:00;3.50;;;3.20;;
20065;SDS011;10193;48.884;9.182;2023-03-16T12:05:55;3.53;;;3.03;;
20065;SDS011;10193;48.884;9.182;2023-03-16T12:08:29;3.53;;;3.25;;
20065;SDS011;10193;48.884;9.182;2023-03-16T12:11:08;3.70;;;3.40;;
20065;SDS011;10193;48.884;9.182;2023-03-16T12:13:42;3.85;;;3.55;;
20065;SDS011;10193;48.884;9.182;2023-03-16T12:16:22;3.85;;;3.55;;
20065;SDS011;10193;48.884;9.182;2023-03-16T12:18:54;4.75;;;3.28;;
20065;SDS011;10193;48.884;9.182;2023-03-16T12:21:25;3.38;;;3.08;;
20065;SDS011;10193;48.884;9.182;2023-03-16T12:23:57;3.70;;;2.83;;
20065;SDS011;10193;48.884;9.182;2023-03-16T12:26:27;3.28;;;3.00;;
20065;SDS011;10193;48.884;9.182;2023-03-16T12:28:58;3.90;;;3.33;;
20065;SDS011;10193;48.884;9.182;2023-03-16T12:31:36;3.60;;;3.30;;
20065;SDS011;10193;48.884;9.182;2023-03-16T12:34:14;3.03;;;2.80;;
20065;SDS011;10193;48.884;9.182;2023-03-16T12:36:50;3.35;;;2.88;;
20065;SDS011;10193;48.884;9.182;2023-03-16T12:39:24;3.33;;;3.03;;
20065;SDS011;10193;48.884;9.182;2023-03-16T12:42:17;3.83;;;2.53;;
20065;SDS011;10193;48.884;9.182;2023-03-16T12:44:52;3.38;;;2.53;;
20065;SDS011;10193;48.884;9.182;2023-03-16T12:47:24;3.15;;;2.95;;
20065;SDS011;10193;48.884;9.182;2023-03-16T12:50:01;3.17;;;2.35;;
20065;SDS011;10193;48.884;9.182;2023-03-16T12:52:38;3.58;;;2.78;;
20065;SDS011;10193;48.884;9.182;2023-03-16T12:55:07;2.58;;;2.38;;
20065;SDS011;10193;48.884;9.182;2023-03-16T12:57:39;2.60;;;2.40;;
20065;SDS011;10193;48.884;9.182;2023-03-16T13:00:06;3.15;;;2.60;;
20065;SDS011;10193;48.884;9.182;2023-03-16T13:02:36;2.30;;;2.20;;
20065;SDS011;10193;48.884;9.182;2023-03-16T13:05:07;2.53;;;2.35;;
20065;SDS011;10193;48.884;9.182;2023-03-16T13:07:36;2.55;;;2.35;;
20065;SDS011;10193;48.884;9.182;2023-03-16T13:10:12;2.53;;;2.30;;
20065;SDS011;10193;48.884;9.182;2023-03-16T13:12:41;2.63;;;2.42;;
20065;SDS011;10193;48.884;9.182;2023-03-16T13:15:26;3.10;;;2.80;;
20065;SDS011;10193;48.884;9.182;2023-03-16T13:18:04;2.78;;;2.58;;
20065;SDS011;10193;48.884;9.182;2023-03-16T13:20:48;3.00;;;2.70;;
20065;SDS011;10193;48.884;9.182;2023-03-16T13:23:20;3.17;;;2.97;;
20065;SDS011;10193;48.884;9.182;2023-03-16T13:26:04;2.72;;;2.53;;
20065;SDS011;10193;48.884;9.182;2023-03-16T13:28:39;3.70;;;2.72;;
20065;SDS011;10193;48.884;9.182;2023-03-16T13:31:18;2.70;;;2.50;;
20065;SDS011;10193;48.884;9.182;2023-03-16T13:33:49;2.83;;;2.63;;
20065;SDS011;10193;48.884;9.182;2023-03-16T13:36:19;2.75;;;2.55;;
20065;SDS011;10193;48.884;9.182;2023-03-16T13:38:53;3.28;;;2.50;;
20065;SDS011;10193;48.884;9.182;2023-03-16T13:41:22;2.60;;;2.40;;
20065;SDS011;10193;48.884;9.182;2023-03-16T13:43:49;3.03;;;2.67;;
20065;SDS011;10193;48.884;9.182;2023-03-16T13:46:16;2.58;;;2.38;;
20065;SDS011;10193;48.884;9.182;2023-03-16T13:48:45;2.53;;;2.40;;
20065;SDS011;10193;48.884;9.182;2023-03-16T13:51:15;3.08;;;2.45;;
20065;SDS011;10193;48.884;9.182;2023-03-16T13:53:44;3.25;;;2.88;;
20065;SDS011;10193;48.884;9.182;2023-03-16T13:56:12;2.72;;;2.53;;
20065;SDS011;10193;48.884;9.182;2023-03-16T13:58:42;3.05;;;2.80;;
20065;SDS011;10193;48.884;9.182;2023-03-16T14:01:12;2.90;;;2.47;;
20065;SDS011;10193;48.884;9.182;2023-03-16T14:03:44;2.60;;;2.40;;
20065;SDS011;10193;48.884;9.182;2023-03-16T14:06:17;2.53;;;2.30;;
20065;SDS011;10193;48.884;9.182;2023-03-16T14:08:49;2.63;;;2.42;;
20065;SDS011;10193;48.884;9.182;2023-03-16T14:11:18;2.85;;;2.65;;
20065;SDS011;10193;48.884;9.182;2023-03-16T14:13:51;2.35;;;2.15;;
20065;SDS011;10193;48.884;9.182;2023-03-16T14:16:20;2.58;;;2.38;;
20065;SDS011;10193;48.884;9.182;2023-03-16T14:18:51;2.60;;;2.40;;
20065;SDS011;10193;48.884;9.182;2023-03-16T14:21:21;4.22;;;2.85;;
20065;SDS011;10193;48.884;9.182;2023-03-16T14:23:50;3.65;;;2.88;;
20065;SDS011;10193;48.884;9.182;2023-03-16T14:26:19;2.90;;;2.60;;
20065;SDS011;10193;48.884;9.182;2023-03-16T14:28:52;2.42;;;2.20;;
20065;SDS011;10193;48.884;9.182;2023-03-16T14:31:21;3.00;;;2.70;;
20065;SDS011;10193;48.884;9.182;2023-03-16T14:33:58;2.40;;;2.17;;
20065;SDS011;10193;48.884;9.182;2023-03-16T14:36:34;2.75;;;2.30;;
20065;SDS011;10193;48.884;9.182;2023-03-16T14:39:11;2.67;;;2.42;;
20065;SDS011;10193;48.884;9.182;2023-03-16T14:41:38;3.17;;;2.83;;
20065;SDS011;10193;48.884;9.182;2023-03-16T14:44:10;3.03;;;2.72;;
20065;SDS011;10193;48.884;9.182;2023-03-16T14:46:43;2.60;;;2.40;;
20065;SDS011;10193;48.884;9.182;2023-03-16T14:49:15;2.58;;;2.38;;
20065;SDS011;10193;48.884;9.182;2023-03-16T14:51:47;4.10;;;2.65;;
20065;SDS011;10193;48.884;9.182;2023-03-16T14:54:17;2.50;;;2.30;;
20065;SDS011;10193;48.884;9.182;2023-03-16T14:56:46;2.70;;;2.40;;
20065;SDS011;10193;48.884;9.182;2023-03-16T14:59:14;4.15;;;2.60;;
20065;SDS011;10193;48.884;9.182;2023-03-16T15:01:40;3.83;;;2.72;;
20065;SDS011;10193;48.884;9.182;2023-03-16T15:04:09;2.75;;;2.50;;